Time;durP1;ratioP1;P1;durP2;ratioP2;P2;SDS_P1;SDS_P2;PMS_P1;PMS_P2;Temp;Humidity;BMP_temperature;BMP_pressure;BME280_temperature;BME280_humidity;BME280_pressure;Samples;Min_cycle;Max_cycle;Signal;HPM_P1;HPM_P2
2021/07/10 00:01:37;;;;;;;6.83;1.97;;;;;;;18.41;77.33;98573.94;126132;1093;23951;-80
2021/07/10 00:04:19;;;;;;;4.05;1.80;;;;;;;18.37;76.69;98570.14;126155;1093;22756;-80
2021/07/10 00:07:00;;;;;;;2.98;2.08;;;;;;;18.35;77.39;98570.42;126193;1093;26238;-81
2021/07/10 00:09:42;;;;;;;5.35;2.23;;;;;;;18.30;77.14;98561.39;126148;1092;26252;-81
2021/07/10 00:12:09;;;;;;;3.97;2.27;;;;;;;18.28;77.18;98556.17;126215;1093;22819;-80
2021/07/10 00:14:37;;;;;;;3.23;2.20;;;;;;;18.34;77.23;98562.44;126216;1093;22812;-80
2021/07/10 00:17:18;;;;;;;3.57;2.27;;;;;;;18.42;77.42;98570.08;126088;1093;22787;-80
2021/07/10 00:19:47;;;;;;;6.60;2.55;;;;;;;18.49;77.51;98578.00;126159;1092;22844;-80
2021/07/10 00:22:15;;;;;;;5.98;2.45;;;;;;;18.54;77.11;98584.27;126179;1093;22844;-80
2021/07/10 00:24:43;;;;;;;2.50;2.00;;;;;;;18.59;76.16;98575.09;126223;1093;26909;-80
2021/07/10 00:27:10;;;;;;;3.58;2.03;;;;;;;18.61;76.22;98578.41;126237;1093;25938;-80
2021/07/10 00:29:38;;;;;;;4.98;2.15;;;;;;;18.64;76.08;98572.28;126211;1093;27259;-80
2021/07/10 00:32:20;;;;;;;3.90;1.93;;;;;;;18.67;75.48;98581.92;126153;1093;22847;-80
2021/07/10 00:35:01;;;;;;;5.23;2.33;;;;;;;18.66;75.69;98574.75;126169;1093;22819;-80
2021/07/10 00:37:44;;;;;;;4.45;1.90;;;;;;;18.60;74.94;98583.08;126231;1093;25874;-80
2021/07/10 00:40:12;;;;;;;3.50;1.78;;;;;;;18.56;75.42;98581.22;126200;1093;22797;-80
2021/07/10 00:42:53;;;;;;;4.65;1.95;;;;;;;18.55;75.36;98583.14;126167;1092;22790;-80
2021/07/10 00:45:35;;;;;;;2.93;1.68;;;;;;;18.52;75.49;98588.42;126046;1093;22775;-80
2021/07/10 00:48:03;;;;;;;5.73;1.80;;;;;;;18.47;75.12;98608.63;126172;1093;22876;-80
2021/07/10 00:50:30;;;;;;;3.25;1.43;;;;;;;18.45;74.77;98602.59;126261;1093;23717;-81
2021/07/10 00:52:58;;;;;;;2.90;1.75;;;;;;;18.40;74.71;98597.94;126021;1093;23315;-81
2021/07/10 00:55:27;;;;;;;2.48;1.65;;;;;;;18.37;74.90;98609.55;126005;1093;22815;-80
2021/07/10 00:58:11;;;;;;;2.95;1.35;;;;;;;18.33;74.95;98611.26;126120;1093;25452;-80
2021/07/10 01:00:52;;;;;;;3.03;1.40;;;;;;;18.30;74.69;98600.00;126252;1093;22840;-80
2021/07/10 01:03:20;;;;;;;2.83;1.53;;;;;;;18.26;74.65;98607.22;126252;1093;22809;-81
2021/07/10 01:06:02;;;;;;;3.25;1.23;;;;;;;18.19;74.52;98608.36;126035;1092;22769;-80
2021/07/10 01:08:30;;;;;;;3.35;0.93;;;;;;;18.13;74.04;98603.19;126179;1093;22756;-80
2021/07/10 01:10:58;;;;;;;1.88;1.20;;;;;;;18.11;74.82;98605.42;126177;1093;22784;-80
2021/07/10 01:13:40;;;;;;;2.50;1.18;;;;;;;18.06;74.58;98620.09;126187;1093;22761;-80
2021/07/10 01:16:07;;;;;;;4.43;1.33;;;;;;;18.00;74.82;98619.30;126018;1093;22801;-80
2021/07/10 01:18:49;;;;;;;1.28;1.00;;;;;;;17.96;74.84;98620.18;126194;1093;23039;-80
2021/07/10 01:21:31;;;;;;;3.33;0.90;;;;;;;17.90;74.30;98619.41;126238;1093;24162;-80
2021/07/10 01:24:12;;;;;;;1.10;1.00;;;;;;;17.89;74.73;98619.70;126171;1093;27157;-80
2021/07/10 01:26:40;;;;;;;2.48;0.90;;;;;;;17.88;74.74;98616.09;126199;1093;25900;-80
2021/07/10 01:29:21;;;;;;;2.10;1.03;;;;;;;17.85;74.99;98619.42;126016;1092;22760;-80
2021/07/10 01:31:49;;;;;;;2.03;1.13;;;;;;;17.86;74.99;98629.34;126213;1093;22742;-80
2021/07/10 01:34:17;;;;;;;1.43;0.85;;;;;;;17.90;75.31;98643.36;126301;1093;22784;-79
2021/07/10 01:36:46;;;;;;;2.30;1.10;;;;;;;17.89;75.78;98642.55;126523;1093;26255;-79
2021/07/10 01:39:27;;;;;;;2.25;1.18;;;;;;;17.93;75.91;98638.09;126241;1093;22787;-79
2021/07/10 01:42:10;;;;;;;2.40;1.08;;;;;;;17.98;75.65;98631.73;126302;1093;22761;-79
2021/07/10 01:44:52;;;;;;;1.45;1.08;;;;;;;18.01;75.03;98629.22;126419;1093;22919;-79
2021/07/10 01:47:33;;;;;;;1.30;1.00;;;;;;;18.04;74.87;98627.80;126524;1093;26239;-79
2021/07/10 01:50:15;;;;;;;1.10;1.00;;;;;;;18.03;74.63;98620.66;126346;1093;22786;-79
2021/07/10 01:52:43;;;;;;;2.78;0.93;;;;;;;18.02;74.32;98627.27;126451;1092;22787;-79
2021/07/10 01:55:14;;;;;;;1.50;0.88;;;;;;;18.02;74.44;98628.12;126617;1093;23316;-79
2021/07/10 01:57:46;;;;;;;3.15;1.20;;;;;;;18.03;74.35;98632.50;126536;1093;25867;-79
2021/07/10 02:00:17;;;;;;;1.78;1.20;;;;;;;18.04;74.40;98627.80;126448;1093;22769;-79
2021/07/10 02:02:46;;;;;;;1.45;1.30;;;;;;;18.03;74.58;98634.44;126530;1092;22770;-79
2021/07/10 02:05:18;;;;;;;4.28;1.30;;;;;;;18.04;74.40;98638.83;126516;1093;23296;-79
2021/07/10 02:07:46;;;;;;;3.28;1.10;;;;;;;18.03;74.27;98632.50;126473;1093;22761;-79
2021/07/10 02:10:16;;;;;;;4.10;1.00;;;;;;;18.05;73.79;98647.94;126470;1093;22808;-79
2021/07/10 02:12:46;;;;;;;2.20;0.90;;;;;;;18.05;74.01;98645.99;126506;1093;22761;-79
2021/07/10 02:15:14;;;;;;;2.60;1.13;;;;;;;18.04;73.94;98652.60;126541;1092;26256;-79
2021/07/10 02:17:57;;;;;;;3.88;1.80;;;;;;;18.07;73.86;98660.30;126557;1092;22765;-79
2021/07/10 02:20:39;;;;;;;2.88;1.38;;;;;;;18.07;73.58;98657.55;126582;1092;22813;-79
2021/07/10 02:23:06;;;;;;;2.63;1.15;;;;;;;18.07;73.59;98670.52;126514;1093;22925;-79
2021/07/10 02:25:34;;;;;;;1.45;0.85;;;;;;;18.07;73.28;98678.78;126621;1093;22919;-79
2021/07/10 02:28:16;;;;;;;2.05;1.10;;;;;;;18.09;73.38;98676.55;126516;1093;22767;-79
2021/07/10 02:30:44;;;;;;;2.85;0.83;;;;;;;18.10;73.28;98675.45;126562;1093;24447;-79
2021/07/10 02:33:25;;;;;;;1.58;1.03;;;;;;;18.09;73.25;98671.04;126457;1092;22795;-79
2021/07/10 02:36:06;;;;;;;1.47;1.20;;;;;;;18.09;73.20;98671.04;126451;1093;26235;-79
2021/07/10 02:38:48;;;;;;;2.00;1.33;;;;;;;18.07;72.90;98665.00;126532;1092;22975;-79
2021/07/10 02:41:29;;;;;;;2.73;0.90;;;;;;;18.05;72.79;98657.02;126504;1092;26280;-79
2021/07/10 02:43:57;;;;;;;3.03;1.10;;;;;;;18.03;73.04;98649.03;126294;1093;22820;-79
2021/07/10 02:46:24;;;;;;;2.65;1.20;;;;;;;18.04;72.96;98671.89;126274;1092;22765;-79
2021/07/10 02:48:52;;;;;;;2.15;0.98;;;;;;;18.06;73.13;98682.63;126353;1092;22790;-79
2021/07/10 02:51:20;;;;;;;1.48;1.00;;;;;;;18.04;73.17;98685.67;126562;1092;22767;-79
2021/07/10 02:53:47;;;;;;;3.77;0.90;;;;;;;18.02;73.28;98688.75;126236;1093;27511;-79
2021/07/10 02:56:15;;;;;;;3.93;1.18;;;;;;;18.03;73.53;98690.38;126608;1093;25871;-79
2021/07/10 02:58:43;;;;;;;3.28;0.70;;;;;;;18.03;72.97;98684.86;126585;1092;22831;-79
2021/07/10 03:01:24;;;;;;;4.63;1.10;;;;;;;18.03;73.38;98687.62;126497;1093;22838;-79
2021/07/10 03:03:52;;;;;;;4.53;1.00;;;;;;;18.03;73.36;98684.86;126546;1093;22792;-79
2021/07/10 03:06:19;;;;;;;1.08;0.85;;;;;;;18.02;72.89;98674.97;126443;1093;22741;-79
2021/07/10 03:09:01;;;;;;;1.38;0.90;;;;;;;17.99;72.50;98661.75;126503;1093;22783;-79
2021/07/10 03:11:29;;;;;;;4.73;0.95;;;;;;;17.95;72.31;98646.89;126583;1092;25874;-79
2021/07/10 03:13:57;;;;;;;2.00;0.85;;;;;;;17.89;72.14;98637.04;126593;1092;26292;-79
2021/07/10 03:16:25;;;;;;;2.95;0.80;;;;;;;17.76;73.12;98629.39;126964;1092;23334;-80
2021/07/10 03:18:52;;;;;;;2.35;0.90;;;;;;;17.62;73.38;98626.50;126650;1092;27275;-80
2021/07/10 03:21:20;;;;;;;1.20;1.00;;;;;;;17.51;73.68;98625.75;126681;1093;22808;-79
2021/07/10 03:23:48;;;;;;;1.53;0.85;;;;;;;17.46;73.86;98617.53;126391;1093;22999;-79
2021/07/10 03:26:15;;;;;;;2.60;1.05;;;;;;;17.41;74.03;98621.13;126415;1093;27300;-80
2021/07/10 03:28:43;;;;;;;1.90;0.68;;;;;;;17.32;75.05;98609.08;126563;1093;22790;-80
2021/07/10 03:31:10;;;;;;;5.43;0.90;;;;;;;17.17;75.55;98609.98;126327;1093;22797;-79
2021/07/10 03:33:38;;;;;;;1.05;0.75;;;;;;;17.04;76.54;98605.94;126502;1093;22867;-79
2021/07/10 03:36:06;;;;;;;4.23;1.30;;;;;;;16.92;77.10;98607.39;126772;1093;22834;-80
2021/07/10 03:38:33;;;;;;;2.70;0.80;;;;;;;16.81;77.99;98601.09;126536;1092;22839;-80
2021/07/10 03:41:01;;;;;;;3.70;0.90;;;;;;;16.72;78.54;98606.35;126481;1093;22763;-80
2021/07/10 03:43:42;;;;;;;2.30;0.70;;;;;;;16.66;78.94;98610.22;126470;1092;22767;-80
2021/07/10 03:46:10;;;;;;;2.93;0.80;;;;;;;16.62;79.02;98606.39;126528;1093;27491;-80
2021/07/10 03:48:51;;;;;;;3.00;1.00;;;;;;;16.61;79.35;98612.98;126480;1093;22996;-80
2021/07/10 03:51:33;;;;;;;0.63;0.60;;;;;;;16.64;78.59;98618.77;126334;1093;23780;-80
2021/07/10 03:54:00;;;;;;;2.60;0.83;;;;;;;16.72;78.17;98622.85;126588;1093;22787;-80
2021/07/10 03:56:42;;;;;;;2.53;0.90;;;;;;;16.80;78.05;98629.69;126431;1093;22922;-80
2021/07/10 03:59:09;;;;;;;2.73;0.90;;;;;;;16.89;77.35;98623.36;126574;1093;22909;-79
2021/07/10 04:01:41;;;;;;;3.10;0.80;;;;;;;16.95;77.12;98628.84;126505;1093;22784;-80
2021/07/10 04:04:09;;;;;;;2.13;0.75;;;;;;;17.00;76.62;98626.07;126502;1092;24067;-80
2021/07/10 04:06:37;;;;;;;2.93;0.93;;;;;;;17.08;76.41;98623.52;126596;1092;22788;-79
2021/07/10 04:09:04;;;;;;;1.50;0.83;;;;;;;17.17;76.76;98626.50;126406;1093;23715;-79
2021/07/10 04:11:32;;;;;;;4.77;0.90;;;;;;;17.29;76.42;98625.34;126313;1092;27286;-79
2021/07/10 04:14:00;;;;;;;1.20;0.90;;;;;;;17.38;76.09;98629.13;126483;1093;22906;-79
2021/07/10 04:16:27;;;;;;;4.93;0.88;;;;;;;17.46;75.35;98634.86;126542;1091;22777;-79
2021/07/10 04:18:55;;;;;;;0.75;0.60;;;;;;;17.52;75.38;98623.81;126586;1093;22781;-79
2021/07/10 04:21:23;;;;;;;3.00;0.50;;;;;;;17.56;75.27;98627.63;126574;1093;22912;-79
2021/07/10 04:24:05;;;;;;;4.35;0.90;;;;;;;17.59;75.21;98630.63;126490;1092;22780;-79
2021/07/10 04:26:46;;;;;;;1.38;0.90;;;;;;;17.62;75.11;98634.76;126269;1092;22842;-79
2021/07/10 04:29:14;;;;;;;2.53;0.70;;;;;;;17.63;74.17;98628.94;126623;1092;25865;-79
2021/07/10 04:31:42;;;;;;;1.70;0.80;;;;;;;17.59;74.46;98643.59;126535;1093;22774;-79
2021/07/10 04:34:23;;;;;;;2.48;0.70;;;;;;;17.57;74.53;98654.88;126491;1092;22755;-79
2021/07/10 04:37:05;;;;;;;1.58;0.60;;;;;;;17.61;74.52;98655.95;126450;1093;23456;-79
2021/07/10 04:39:33;;;;;;;2.90;0.90;;;;;;;17.65;74.07;98665.30;126506;1093;24559;-79
2021/07/10 04:42:15;;;;;;;3.18;1.03;;;;;;;17.70;73.90;98671.88;126544;1093;24411;-79
2021/07/10 04:44:43;;;;;;;1.75;0.70;;;;;;;17.74;74.49;98684.80;126330;1093;22785;-79
2021/07/10 04:47:10;;;;;;;3.53;1.23;;;;;;;17.78;74.41;98674.03;126340;1092;22812;-79
2021/07/10 04:49:38;;;;;;;2.63;0.93;;;;;;;17.83;74.05;98672.05;126534;1093;26236;-80
2021/07/10 04:52:20;;;;;;;3.20;0.90;;;;;;;17.90;73.15;98676.42;126378;1093;25754;-80
2021/07/10 04:54:47;;;;;;;4.25;1.00;;;;;;;17.92;73.85;98677.80;126337;1092;22784;-79
2021/07/10 04:57:15;;;;;;;4.25;1.10;;;;;;;17.97;73.26;98682.43;126491;1092;22757;-79
2021/07/10 04:59:43;;;;;;;1.93;1.00;;;;;;;17.99;73.56;98683.80;126510;1093;25865;-79
2021/07/10 05:02:10;;;;;;;3.03;0.88;;;;;;;18.06;73.91;98680.72;126579;1093;22812;-80
2021/07/10 05:04:38;;;;;;;3.20;1.00;;;;;;;18.09;73.54;98685.63;126605;1092;22930;-79
2021/07/10 05:07:20;;;;;;;2.25;0.93;;;;;;;18.13;73.25;98683.97;126537;1093;22757;-79
2021/07/10 05:10:03;;;;;;;3.63;1.15;;;;;;;18.20;73.13;98683.61;126484;1093;22754;-79
2021/07/10 05:12:30;;;;;;;1.95;1.03;;;;;;;18.24;72.69;98681.94;126530;1092;26242;-80
2021/07/10 05:14:58;;;;;;;2.03;0.90;;;;;;;18.28;73.15;98677.48;126535;1093;25842;-80
2021/07/10 05:17:25;;;;;;;3.37;1.20;;;;;;;18.32;72.99;98669.45;126495;1093;22784;-80
2021/07/10 05:19:53;;;;;;;1.53;1.10;;;;;;;18.34;72.83;98665.30;126516;1093;22876;-80
2021/07/10 05:22:21;;;;;;;3.18;1.00;;;;;;;18.34;72.82;98668.06;126357;1091;24440;-80
2021/07/10 05:24:48;;;;;;;4.40;1.20;;;;;;;18.35;72.95;98660.59;126564;1093;22826;-80
2021/07/10 05:27:16;;;;;;;4.40;1.30;;;;;;;18.35;72.58;98675.20;126481;1092;27329;-80
2021/07/10 05:29:57;;;;;;;2.87;1.30;;;;;;;18.32;72.05;98677.72;126407;1093;26382;-80
2021/07/10 05:32:25;;;;;;;2.53;1.20;;;;;;;18.25;72.31;98680.80;126624;1093;22783;-80
2021/07/10 05:35:09;;;;;;;1.00;0.90;;;;;;;18.23;72.70;98679.47;126347;1092;24418;-80
2021/07/10 05:37:37;;;;;;;4.10;1.10;;;;;;;18.24;73.03;98687.45;126351;1093;22799;-80
2021/07/10 05:40:07;;;;;;;2.43;1.38;;;;;;;18.30;72.70;98685.46;126636;1092;26427;-80
2021/07/10 05:42:49;;;;;;;2.53;1.23;;;;;;;18.35;72.84;98680.72;126503;1093;22743;-80
2021/07/10 05:45:30;;;;;;;2.20;1.17;;;;;;;18.42;72.63;98682.33;126457;1093;22848;-80
2021/07/10 05:47:58;;;;;;;2.87;1.23;;;;;;;18.44;72.70;98685.61;126514;1093;24445;-80
2021/07/10 05:50:26;;;;;;;2.25;1.40;;;;;;;18.46;72.81;98691.65;126634;1093;24409;-79
2021/07/10 05:52:53;;;;;;;4.58;1.18;;;;;;;18.53;72.57;98697.64;126506;1093;24762;-80
2021/07/10 05:55:21;;;;;;;3.15;1.43;;;;;;;18.61;72.43;98697.02;126477;1093;22918;-80
2021/07/10 05:58:03;;;;;;;3.33;1.33;;;;;;;18.73;72.76;98702.11;126531;1093;27503;-79
2021/07/10 06:00:32;;;;;;;3.18;1.23;;;;;;;18.83;71.86;98706.73;126511;1093;25870;-80
2021/07/10 06:03:00;;;;;;;;;;;;;;;18.91;71.98;98708.83;126698;1092;26300;-79
2021/07/10 06:05:27;;;;;;;1.55;1.20;;;;;;;18.95;71.34;98704.39;126267;1093;21460;-79
2021/07/10 06:07:55;;;;;;;2.50;1.17;;;;;;;19.07;71.72;98710.31;126177;1093;26270;-79
2021/07/10 06:10:23;;;;;;;2.17;0.90;;;;;;;19.20;71.52;98710.72;126159;1093;22758;-79
2021/07/10 06:13:05;;;;;;;2.07;1.10;;;;;;;19.25;70.48;98707.89;126187;1093;26248;-80
2021/07/10 06:15:47;;;;;;;1.90;1.00;;;;;;;19.31;70.21;98712.22;126186;1093;22775;-80
2021/07/10 06:18:15;;;;;;;4.45;1.10;;;;;;;19.39;70.08;98705.20;126130;1092;22761;-80
2021/07/10 06:20:42;;;;;;;2.50;1.40;;;;;;;19.39;69.39;98706.05;126182;1093;22787;-80
2021/07/10 06:23:10;;;;;;;1.23;1.07;;;;;;;19.33;69.03;98719.07;126159;1093;24539;-80
2021/07/10 06:25:52;;;;;;;2.95;1.00;;;;;;;19.29;69.05;98711.70;126185;1093;22774;-79
2021/07/10 06:28:20;;;;;;;1.88;1.20;;;;;;;19.28;69.07;98718.33;126237;1093;22784;-79
2021/07/10 06:31:01;;;;;;;2.80;1.15;;;;;;;19.30;68.32;98719.69;126161;1093;22838;-80
2021/07/10 06:33:29;;;;;;;2.43;0.93;;;;;;;19.32;68.72;98717.45;126170;1093;24584;-80
2021/07/10 06:36:11;;;;;;;2.23;1.13;;;;;;;19.38;68.32;98720.95;126157;1093;26245;-80
2021/07/10 06:38:53;;;;;;;1.60;1.00;;;;;;;19.50;68.48;98723.30;126155;1093;24559;-80
2021/07/10 06:41:37;;;;;;;3.88;1.13;;;;;;;19.61;68.25;98718.45;126191;1092;26234;-79
2021/07/10 06:44:19;;;;;;;2.03;1.00;;;;;;;19.69;66.27;98715.84;126204;1092;24557;-80
2021/07/10 06:47:00;;;;;;;2.75;0.95;;;;;;;19.67;66.04;98720.84;126011;1092;22784;-80
2021/07/10 06:49:27;;;;;;;4.13;1.40;;;;;;;19.66;65.55;98710.90;126157;1093;27151;-80
2021/07/10 06:51:55;;;;;;;1.98;1.00;;;;;;;19.63;64.62;98714.25;126185;1092;22912;-81
2021/07/10 06:54:23;;;;;;;1.35;0.98;;;;;;;19.53;64.74;98706.95;126163;1093;22815;-80
2021/07/10 06:56:50;;;;;;;1.25;0.80;;;;;;;19.45;65.54;98706.79;126152;1093;24399;-80
2021/07/10 06:59:18;;;;;;;2.35;0.83;;;;;;;19.46;64.71;98706.50;126160;1093;22795;-80
2021/07/10 07:01:50;;;;;;;1.30;1.10;;;;;;;19.51;65.26;98711.11;126228;1092;22778;-81
2021/07/10 07:04:18;;;;;;;3.43;0.90;;;;;;;19.54;65.53;98714.09;126182;1092;22813;-81
2021/07/10 07:06:46;;;;;;;1.15;0.88;;;;;;;19.61;64.45;98715.68;126032;1093;22795;-80
2021/07/10 07:09:28;;;;;;;1.88;0.90;;;;;;;19.68;64.65;98721.66;126233;1092;22757;-80
2021/07/10 07:11:55;;;;;;;2.48;0.80;;;;;;;19.73;63.54;98716.91;126188;1093;27192;-81
2021/07/10 07:14:23;;;;;;;1.73;0.90;;;;;;;19.78;64.00;98726.23;126188;1093;24277;-80
2021/07/10 07:16:51;;;;;;;1.10;0.88;;;;;;;19.81;64.02;98722.88;126034;1093;23232;-81
2021/07/10 07:19:18;;;;;;;2.10;0.80;;;;;;;19.88;64.12;98726.92;126224;1093;22806;-80
2021/07/10 07:21:46;;;;;;;3.18;0.70;;;;;;;19.96;63.62;98719.07;126144;1093;22803;-81
2021/07/10 07:24:13;;;;;;;2.25;0.88;;;;;;;19.98;63.33;98717.63;126153;1092;22834;-81
2021/07/10 07:26:55;;;;;;;1.58;0.90;;;;;;;19.94;62.94;98718.52;126164;1093;22770;-81
2021/07/10 07:29:23;;;;;;;1.13;0.93;;;;;;;19.99;64.15;98719.29;126170;1093;22929;-80
2021/07/10 07:31:51;;;;;;;2.80;0.90;;;;;;;20.13;64.06;98719.31;126161;1092;24428;-80
2021/07/10 07:34:18;;;;;;;2.18;1.10;;;;;;;20.33;63.63;98723.70;126235;1093;22914;-79
2021/07/10 07:36:46;;;;;;;2.40;1.00;;;;;;;20.55;63.56;98724.98;126236;1092;22924;-79
2021/07/10 07:39:27;;;;;;;2.98;1.20;;;;;;;20.71;62.53;98731.09;126191;1093;24401;-80
2021/07/10 07:42:09;;;;;;;4.00;1.30;;;;;;;20.85;62.55;98721.66;126147;1092;27147;-80
2021/07/10 07:44:51;;;;;;;1.45;1.10;;;;;;;21.00;62.44;98723.33;126192;1093;22758;-80
2021/07/10 07:47:19;;;;;;;0.90;0.80;;;;;;;21.13;62.43;98724.45;126076;1093;22806;-79
2021/07/10 07:50:01;;;;;;;2.68;0.88;;;;;;;21.24;61.78;98716.74;126241;1093;22770;-79
2021/07/10 07:52:28;;;;;;;3.85;0.95;;;;;;;21.33;61.59;98727.92;126230;1093;22767;-79
2021/07/10 07:54:56;;;;;;;1.88;0.85;;;;;;;21.38;60.21;98725.05;126234;1093;22812;-80
2021/07/10 07:57:23;;;;;;;1.80;0.95;;;;;;;21.41;60.42;98721.66;126202;1093;22828;-80
2021/07/10 07:59:51;;;;;;;2.05;0.88;;;;;;;21.46;60.15;98720.74;126218;1092;25944;-79
2021/07/10 08:02:18;;;;;;;1.90;1.18;;;;;;;21.46;59.81;98726.28;126225;1092;22838;-79
2021/07/10 08:05:00;;;;;;;2.47;1.07;;;;;;;21.49;61.15;98734.80;126538;1093;22784;-79
2021/07/10 08:07:28;;;;;;;2.88;0.90;;;;;;;21.53;60.06;98726.68;126314;1092;22784;-79
2021/07/10 08:10:12;;;;;;;1.65;1.20;;;;;;;21.54;59.57;98740.23;126220;1093;26248;-79
2021/07/10 08:12:41;;;;;;;1.20;0.87;;;;;;;21.62;59.58;98730.38;126272;1092;22773;-80
2021/07/10 08:15:11;;;;;;;1.45;0.85;;;;;;;21.67;59.89;98724.70;126025;1093;22852;-79
2021/07/10 08:17:38;;;;;;;1.95;1.15;;;;;;;21.75;59.67;98729.51;126303;1093;27157;-79
2021/07/10 08:20:21;;;;;;;1.83;1.15;;;;;;;21.82;59.89;98731.05;126233;1093;26242;-79
2021/07/10 08:22:49;;;;;;;2.63;1.10;;;;;;;21.76;59.30;98727.55;126734;1093;25996;-80
2021/07/10 08:25:17;;;;;;;1.60;1.17;;;;;;;21.64;58.33;98732.81;126622;1093;22848;-80
2021/07/10 08:27:45;;;;;;;2.33;0.90;;;;;;;21.59;58.99;98733.77;126427;1093;22758;-80
2021/07/10 08:30:15;;;;;;;0.75;0.73;;;;;;;21.71;58.01;98728.50;126744;1093;24582;-79
2021/07/10 08:32:44;;;;;;;2.53;1.00;;;;;;;21.77;58.06;98729.20;126682;1093;22809;-80
2021/07/10 08:35:13;;;;;;;1.63;0.70;;;;;;;21.89;57.87;98723.11;126727;1093;25877;-79
2021/07/10 08:37:43;;;;;;;1.13;0.90;;;;;;;21.96;56.89;98729.05;126209;1093;26337;-79
2021/07/10 08:40:25;;;;;;;2.55;1.13;;;;;;;22.09;57.39;98724.57;126154;1093;24566;-79
2021/07/10 08:42:52;;;;;;;2.90;0.90;;;;;;;22.22;55.32;98731.19;126032;1093;22809;-80
2021/07/10 08:45:20;;;;;;;3.05;0.90;;;;;;;22.18;56.33;98731.80;126153;1092;22760;-79
2021/07/10 08:47:48;;;;;;;1.40;0.67;;;;;;;22.14;54.53;98736.36;126260;1093;25957;-79
2021/07/10 08:50:18;;;;;;;1.10;0.75;;;;;;;22.07;56.11;98733.20;126220;1093;22810;-80
2021/07/10 08:52:48;;;;;;;0.70;0.70;;;;;;;22.14;56.32;98736.36;126172;1093;22912;-79
2021/07/10 08:55:16;;;;;;;2.25;0.70;;;;;;;22.23;56.80;98730.06;126190;1093;24430;-79
2021/07/10 08:57:44;;;;;;;1.55;0.83;;;;;;;22.35;56.30;98735.89;126136;1093;22778;-80
2021/07/10 09:00:16;;;;;;;1.23;0.70;;;;;;;22.56;56.65;98728.67;126162;1092;22815;-79
2021/07/10 09:02:51;;;;;;;2.48;0.70;;;;;;;22.73;55.83;98725.19;126022;1092;22781;-79
2021/07/10 09:05:20;;;;;;;0.80;0.70;;;;;;;22.78;55.25;98732.53;126143;1093;22751;-79
2021/07/10 09:08:06;;;;;;;;;;;;;;;22.73;53.87;98732.67;126144;1093;22800;-80
2021/07/10 09:10:38;;;;;;;1.73;0.55;;;;;;;22.73;53.64;98732.67;126207;1093;21617;-79
2021/07/10 09:13:22;;;;;;;1.28;0.68;;;;;;;22.97;54.46;98726.75;126017;1093;22845;-79
2021/07/10 09:16:16;;;;;;;0.83;0.83;;;;;;;23.17;54.52;98735.67;126183;1093;25995;-80
2021/07/10 09:18:59;;;;;;;0.60;0.60;;;;;;;23.44;52.40;98729.03;126220;1093;25970;-80
2021/07/10 09:21:50;;;;;;;0.80;0.80;;;;;;;23.62;50.97;98722.38;126153;1093;22794;-80
2021/07/10 09:24:36;;;;;;;2.88;0.68;;;;;;;23.57;52.39;98721.69;126172;1092;27182;-80
2021/07/10 09:27:07;;;;;;;2.25;0.60;;;;;;;23.52;50.24;98724.66;126245;1093;22760;-80
2021/07/10 09:29:41;;;;;;;0.73;0.70;;;;;;;23.57;50.77;98724.47;126238;1093;22914;-80
2021/07/10 09:34:59;;;;;;;0.80;0.70;;;;;;;24.02;50.74;98724.22;126066;1093;27135;-86
2021/07/10 09:37:32;;;;;;;1.10;0.85;;;;;;;24.32;50.60;98727.95;126024;1093;25855;-86
2021/07/10 09:40:02;;;;;;;1.87;0.90;;;;;;;24.62;50.48;98728.09;126117;1092;22811;-86
2021/07/10 09:42:34;;;;;;;2.45;0.95;;;;;;;24.61;50.26;98729.23;126168;1093;22942;-87
2021/07/10 09:45:04;;;;;;;2.83;1.20;;;;;;;24.36;49.38;98734.48;126005;1094;22800;-87
2021/07/10 09:47:34;;;;;;;1.10;1.00;;;;;;;24.22;49.08;98736.64;126031;1094;22832;-87
2021/07/10 09:50:28;;;;;;;0.80;0.80;;;;;;;24.14;48.65;98726.35;125993;1093;26229;-86
2021/07/10 09:53:36;;;;;;;1.25;0.80;;;;;;;24.02;48.45;98725.03;126025;1093;22854;-86
2021/07/10 09:56:08;;;;;;;1.08;0.90;;;;;;;24.10;48.67;98731.76;125877;1093;22811;-87
2021/07/10 09:58:40;;;;;;;2.10;0.83;;;;;;;24.23;48.52;98733.53;125978;1093;22797;-87
2021/07/10 10:01:34;;;;;;;1.43;0.70;;;;;;;24.44;49.46;98736.45;126016;1093;26273;-87
2021/07/10 10:04:27;;;;;;;1.43;0.63;;;;;;;24.74;48.48;98736.58;126022;1093;22800;-86
2021/07/10 10:06:59;;;;;;;1.05;0.63;;;;;;;24.75;47.98;98732.63;126091;1093;22779;-87
2021/07/10 10:09:46;;;;;;;0.88;0.80;;;;;;;24.92;49.11;98734.55;126008;1093;22800;-87
2021/07/10 10:12:27;;;;;;;1.25;1.00;;;;;;;24.86;48.01;98735.89;126013;1093;22904;-86
2021/07/10 10:14:59;;;;;;;1.83;1.40;;;;;;;24.80;48.43;98734.42;126022;1093;26273;-87
2021/07/10 10:17:27;;;;;;;1.87;0.77;;;;;;;24.78;46.38;98734.75;126009;1094;24302;-86
2021/07/10 10:19:56;;;;;;;2.90;0.85;;;;;;;24.83;48.48;98734.58;126010;1093;26264;-79
2021/07/10 10:22:23;;;;;;;1.25;1.00;;;;;;;25.08;47.62;98737.59;125982;1093;22797;-79
2021/07/10 10:24:52;;;;;;;1.57;1.00;;;;;;;25.17;47.83;98738.37;125986;1094;22825;-79
2021/07/10 10:27:22;;;;;;;2.53;1.03;;;;;;;25.35;47.39;98733.55;126020;1093;27153;-79
2021/07/10 10:30:03;;;;;;;1.10;1.00;;;;;;;25.56;46.63;98722.43;126030;1093;22924;-78
2021/07/10 10:32:31;;;;;;;0.90;0.90;;;;;;;25.76;47.15;98728.36;126085;1093;22826;-79
2021/07/10 10:34:59;;;;;;;1.25;1.00;;;;;;;25.71;47.23;98726.61;126011;1093;25973;-79
2021/07/10 10:37:45;;;;;;;1.45;1.00;;;;;;;26.04;46.82;98725.06;125975;1093;24150;-79
2021/07/10 10:40:19;;;;;;;1.48;0.90;;;;;;;26.25;45.21;98716.67;126006;1093;26226;-79
2021/07/10 10:42:55;;;;;;;1.13;0.90;;;;;;;26.41;45.36;98726.03;126200;1093;22811;-79
2021/07/10 10:45:39;;;;;;;1.13;1.03;;;;;;;26.39;45.30;98717.19;125992;1092;22794;-77
2021/07/10 10:48:08;;;;;;;1.00;1.00;;;;;;;26.57;46.54;98720.61;126049;1093;27354;-79
2021/07/10 10:50:40;;;;;;;1.28;1.00;;;;;;;26.80;44.52;98725.81;126064;1093;26260;-79
2021/07/10 10:53:21;;;;;;;2.73;0.97;;;;;;;26.95;44.34;98713.97;126099;1093;22781;-79
2021/07/10 10:55:49;;;;;;;1.68;1.10;;;;;;;27.08;43.85;98709.20;126111;1093;22861;-79
2021/07/10 10:58:38;;;;;;;1.65;0.83;;;;;;;27.24;43.62;98709.31;126091;1093;22800;-79
2021/07/10 11:01:09;;;;;;;1.55;0.70;;;;;;;27.50;43.37;98713.73;126119;1094;23577;-79
2021/07/10 11:03:50;;;;;;;2.35;1.10;;;;;;;27.46;43.29;98705.23;126048;1093;22767;-78
2021/07/10 11:06:37;;;;;;;1.57;0.80;;;;;;;27.31;42.71;98683.59;126071;1091;24172;-78
2021/07/10 11:09:18;;;;;;;2.48;1.08;;;;;;;26.82;43.22;98712.30;126069;1093;22770;-78
2021/07/10 11:11:45;;;;;;;1.00;0.90;;;;;;;26.49;43.11;98710.36;126015;1093;22965;-77
2021/07/10 11:14:30;;;;;;;2.25;1.00;;;;;;;26.45;44.06;98706.61;126034;1093;22770;-77
2021/07/10 11:17:02;;;;;;;1.20;1.10;;;;;;;26.60;44.86;98702.36;126045;1093;22767;-77
2021/07/10 11:19:50;;;;;;;2.60;1.10;;;;;;;26.84;44.17;98704.39;126203;1093;22785;-77
2021/07/10 11:22:36;;;;;;;;;;;;;;;26.91;41.76;98699.04;126039;1093;25032;-78
2021/07/10 11:25:50;;;;;;;1.10;0.80;;;;;;;26.98;42.44;98704.06;126078;1092;21457;-78
2021/07/10 11:28:39;;;;;;;4.28;1.10;;;;;;;27.06;42.63;98701.16;126031;1093;22817;-78
2021/07/10 11:31:11;;;;;;;1.95;0.90;;;;;;;27.35;41.91;98702.09;126048;1093;22816;-78
2021/07/10 11:34:06;;;;;;;1.20;0.90;;;;;;;27.37;42.47;98705.35;125976;1093;22777;-78
2021/07/10 11:36:52;;;;;;;0.70;0.70;;;;;;;27.60;40.60;98702.88;126006;1093;23250;-87
2021/07/10 11:39:32;;;;;;;0.78;0.78;;;;;;;27.73;39.52;98700.89;126017;1093;22787;-87
2021/07/10 11:42:21;;;;;;;0.70;0.60;;;;;;;27.75;39.68;98687.34;126025;1092;22753;-87
2021/07/10 11:45:04;;;;;;;;;;;;;;;28.03;40.59;98689.39;126059;1093;22796;-88
2021/07/10 11:47:38;;;;;;;1.13;0.93;;;;;;;28.13;39.47;98688.86;126047;1093;21463;-87
2021/07/10 11:50:28;;;;;;;1.03;0.93;;;;;;;27.82;39.64;98690.36;126043;1093;22767;-87
2021/07/10 11:53:12;;;;;;;1.50;0.80;;;;;;;27.99;41.07;98691.26;126036;1093;22764;-88
2021/07/10 11:55:57;;;;;;;1.85;0.80;;;;;;;28.24;39.64;98686.36;125975;1093;24571;-88
2021/07/10 11:58:40;;;;;;;1.15;0.73;;;;;;;28.44;39.43;98683.69;126027;1093;22883;-88
2021/07/10 12:01:24;;;;;;;1.73;0.73;;;;;;;28.52;38.37;98677.92;126160;1093;22773;-88